sensor_id;sensor_type;location;lat;lon;timestamp;pressure;altitude;pressure_sealevel;temperature;humidity
47761;BME280;33524;55.434;38.520;2024-01-15T00:01:55;98435.88;;;-8.85;97.00
47761;BME280;33524;55.434;38.520;2024-01-15T00:04:24;98426.66;;;-8.91;96.79
47761;BME280;33524;55.434;38.520;2024-01-15T00:06:52;98425.06;;;-8.95;96.58
47761;BME280;33524;55.434;38.520;2024-01-15T00:09:20;98424.84;;;-8.86;97.07
47761;BME280;33524;55.434;38.520;2024-01-15T00:11:49;98430.81;;;-8.87;96.75
47761;BME280;33524;55.434;38.520;2024-01-15T00:14:17;98433.88;;;-9.07;96.06
47761;BME280;33524;55.434;38.520;2024-01-15T00:16:48;98418.78;;;-8.80;97.41
47761;BME280;33524;55.434;38.520;2024-01-15T00:19:21;98418.66;;;-8.76;97.11
47761;BME280;33524;55.434;38.520;2024-01-15T00:21:53;98416.44;;;-8.89;96.95
47761;BME280;33524;55.434;38.520;2024-01-15T00:24:21;98418.06;;;-8.87;96.72
47761;BME280;33524;55.434;38.520;2024-01-15T00:26:49;98420.44;;;-8.79;96.98
47761;BME280;33524;55.434;38.520;2024-01-15T00:29:18;98414.03;;;-8.94;96.32
47761;BME280;33524;55.434;38.520;2024-01-15T00:31:46;98413.03;;;-8.88;96.65
47761;BME280;33524;55.434;38.520;2024-01-15T00:34:14;98409.47;;;-8.83;97.05
47761;BME280;33524;55.434;38.520;2024-01-15T00:36:42;98385.34;;;-9.01;96.70
47761;BME280;33524;55.434;38.520;2024-01-15T00:39:11;98403.03;;;-8.96;96.35
47761;BME280;33524;55.434;38.520;2024-01-15T00:41:39;98410.03;;;-9.04;95.21
47761;BME280;33524;55.434;38.520;2024-01-15T00:44:08;98385.22;;;-8.96;97.13
47761;BME280;33524;55.434;38.520;2024-01-15T00:46:45;98400.81;;;-8.76;97.30
47761;BME280;33524;55.434;38.520;2024-01-15T00:49:14;98392.19;;;-9.03;95.18
47761;BME280;33524;55.434;38.520;2024-01-15T00:51:43;98397.53;;;-8.81;96.79
47761;BME280;33524;55.434;38.520;2024-01-15T00:54:11;98396.03;;;-8.88;95.52
47761;BME280;33524;55.434;38.520;2024-01-15T00:56:39;98385.13;;;-8.93;96.13
47761;BME280;33524;55.434;38.520;2024-01-15T00:59:07;98386.16;;;-8.67;96.78
47761;BME280;33524;55.434;38.520;2024-01-15T01:01:37;98384.72;;;-8.78;95.52
47761;BME280;33524;55.434;38.520;2024-01-15T01:04:06;98384.63;;;-8.75;96.00
47761;BME280;33524;55.434;38.520;2024-01-15T01:06:34;98376.75;;;-8.65;97.05
47761;BME280;33524;55.434;38.520;2024-01-15T01:09:02;98370.72;;;-8.63;96.96
47761;BME280;33524;55.434;38.520;2024-01-15T01:11:31;98371.78;;;-8.70;96.46
47761;BME280;33524;55.434;38.520;2024-01-15T01:13:59;98373.25;;;-8.61;97.26
47761;BME280;33524;55.434;38.520;2024-01-15T01:16:28;98373.41;;;-8.67;96.89
47761;BME280;33524;55.434;38.520;2024-01-15T01:18:57;98377.28;;;-8.85;95.49
47761;BME280;33524;55.434;38.520;2024-01-15T01:21:28;98370.44;;;-8.83;96.42
47761;BME280;33524;55.434;38.520;2024-01-15T01:23:56;98371.34;;;-8.55;97.60
47761;BME280;33524;55.434;38.520;2024-01-15T01:26:24;98360.84;;;-8.74;95.95
47761;BME280;33524;55.434;38.520;2024-01-15T01:28:52;98356.66;;;-8.76;96.36
47761;BME280;33524;55.434;38.520;2024-01-15T01:31:20;98356.69;;;-8.78;96.79
47761;BME280;33524;55.434;38.520;2024-01-15T01:33:48;98355.81;;;-8.77;96.72
47761;BME280;33524;55.434;38.520;2024-01-15T01:36:16;98350.38;;;-8.96;95.76
47761;BME280;33524;55.434;38.520;2024-01-15T01:38:45;98351.59;;;-8.78;96.82
47761;BME280;33524;55.434;38.520;2024-01-15T01:41:13;98349.34;;;-8.57;97.64
47761;BME280;33524;55.434;38.520;2024-01-15T01:43:41;98347.44;;;-8.80;96.48
47761;BME280;33524;55.434;38.520;2024-01-15T01:46:10;98343.47;;;-8.59;97.23
47761;BME280;33524;55.434;38.520;2024-01-15T01:48:39;98339.37;;;-8.66;96.22
47761;BME280;33524;55.434;38.520;2024-01-15T01:51:07;98327.53;;;-8.67;97.27
47761;BME280;33524;55.434;38.520;2024-01-15T01:53:36;98337.59;;;-8.94;94.24
47761;BME280;33524;55.434;38.520;2024-01-15T01:56:06;98333.47;;;-8.67;96.50
47761;BME280;33524;55.434;38.520;2024-01-15T01:58:34;98331.56;;;-8.60;97.35
47761;BME280;33524;55.434;38.520;2024-01-15T02:01:03;98326.25;;;-8.51;97.54
47761;BME280;33524;55.434;38.520;2024-01-15T02:03:35;98332.13;;;-8.49;97.02
47761;BME280;33524;55.434;38.520;2024-01-15T02:06:03;98327.72;;;-8.44;97.42
47761;BME280;33524;55.434;38.520;2024-01-15T02:08:32;98323.63;;;-8.49;96.62
47761;BME280;33524;55.434;38.520;2024-01-15T02:11:01;98323.03;;;-8.58;95.89
47761;BME280;33524;55.434;38.520;2024-01-15T02:13:28;98319.13;;;-8.41;97.19
47761;BME280;33524;55.434;38.520;2024-01-15T02:16:00;98322.38;;;-8.36;97.70
47761;BME280;33524;55.434;38.520;2024-01-15T02:18:45;98317.47;;;-8.42;96.85
47761;BME280;33524;55.434;38.520;2024-01-15T02:21:34;98307.28;;;-8.42;96.90
47761;BME280;33524;55.434;38.520;2024-01-15T02:24:04;98312.12;;;-8.35;96.36
47761;BME280;33524;55.434;38.520;2024-01-15T02:26:35;98313.72;;;-8.30;96.70
47761;BME280;33524;55.434;38.520;2024-01-15T02:29:07;98308.53;;;-8.29;97.18
47761;BME280;33524;55.434;38.520;2024-01-15T02:31:39;98302.53;;;-8.26;97.44
47761;BME280;33524;55.434;38.520;2024-01-15T02:34:07;98301.50;;;-8.21;97.56
47761;BME280;33524;55.434;38.520;2024-01-15T02:36:35;98299.06;;;-8.24;97.19
47761;BME280;33524;55.434;38.520;2024-01-15T02:39:04;98291.38;;;-8.22;97.22
47761;BME280;33524;55.434;38.520;2024-01-15T02:41:32;98298.59;;;-8.37;96.91
47761;BME280;33524;55.434;38.520;2024-01-15T02:44:00;98295.94;;;-8.34;97.17
47761;BME280;33524;55.434;38.520;2024-01-15T02:46:28;98292.75;;;-8.40;96.87
47761;BME280;33524;55.434;38.520;2024-01-15T02:48:56;98292.00;;;-8.42;97.60
47761;BME280;33524;55.434;38.520;2024-01-15T02:51:24;98275.12;;;-8.46;98.06
47761;BME280;33524;55.434;38.520;2024-01-15T02:53:53;98295.69;;;-8.24;97.83
47761;BME280;33524;55.434;38.520;2024-01-15T02:56:21;98292.59;;;-8.36;97.59
47761;BME280;33524;55.434;38.520;2024-01-15T02:58:49;98293.44;;;-8.35;97.74
47761;BME280;33524;55.434;38.520;2024-01-15T03:01:19;98279.28;;;-8.44;98.03
47761;BME280;33524;55.434;38.520;2024-01-15T03:03:48;98294.94;;;-8.28;98.13
47761;BME280;33524;55.434;38.520;2024-01-15T03:06:16;98295.69;;;-8.24;97.84
47761;BME280;33524;55.434;38.520;2024-01-15T03:08:44;98292.88;;;-8.17;97.79
47761;BME280;33524;55.434;38.520;2024-01-15T03:11:12;98299.03;;;-8.22;97.56
47761;BME280;33524;55.434;38.520;2024-01-15T03:13:40;98297.16;;;-8.17;97.68
47761;BME280;33524;55.434;38.520;2024-01-15T03:16:08;98297.34;;;-8.23;97.33
47761;BME280;33524;55.434;38.520;2024-01-15T03:18:37;98295.53;;;-8.20;97.86
47761;BME280;33524;55.434;38.520;2024-01-15T03:21:06;98298.09;;;-8.20;97.90
47761;BME280;33524;55.434;38.520;2024-01-15T03:23:34;98293.81;;;-8.19;97.70
47761;BME280;33524;55.434;38.520;2024-01-15T03:26:02;98291.00;;;-8.10;97.95
47761;BME280;33524;55.434;38.520;2024-01-15T03:28:31;98294.00;;;-8.25;96.34
47761;BME280;33524;55.434;38.520;2024-01-15T03:30:59;98279.41;;;-8.20;97.72
47761;BME280;33524;55.434;38.520;2024-01-15T03:33:27;98279.91;;;-8.09;97.79
47761;BME280;33524;55.434;38.520;2024-01-15T03:35:56;98284.94;;;-8.06;97.62
47761;BME280;33524;55.434;38.520;2024-01-15T03:38:28;98290.94;;;-8.08;97.65
47761;BME280;33524;55.434;38.520;2024-01-15T03:41:00;98286.87;;;-8.14;97.29
47761;BME280;33524;55.434;38.520;2024-01-15T03:43:28;98290.88;;;-8.07;97.56
47761;BME280;33524;55.434;38.520;2024-01-15T03:45:56;98284.03;;;-8.05;97.51
47761;BME280;33524;55.434;38.520;2024-01-15T03:48:24;98276.41;;;-8.06;97.61
47761;BME280;33524;55.434;38.520;2024-01-15T03:50:52;98276.66;;;-8.14;96.55
47761;BME280;33524;55.434;38.520;2024-01-15T03:53:20;98277.31;;;-8.07;97.26
47761;BME280;33524;55.434;38.520;2024-01-15T03:55:52;98268.22;;;-8.16;96.82
47761;BME280;33524;55.434;38.520;2024-01-15T03:58:22;98271.97;;;-8.00;97.99
47761;BME280;33524;55.434;38.520;2024-01-15T04:00:51;98261.66;;;-7.97;97.57
47761;BME280;33524;55.434;38.520;2024-01-15T04:03:19;98268.44;;;-7.96;97.66
47761;BME280;33524;55.434;38.520;2024-01-15T04:05:48;98268.19;;;-7.88;97.97
47761;BME280;33524;55.434;38.520;2024-01-15T04:08:16;98268.19;;;-7.88;97.88
47761;BME280;33524;55.434;38.520;2024-01-15T04:10:44;98265.69;;;-7.89;97.77
47761;BME280;33524;55.434;38.520;2024-01-15T04:13:12;98254.72;;;-7.92;97.60
47761;BME280;33524;55.434;38.520;2024-01-15T04:15:40;98254.63;;;-7.90;97.77
47761;BME280;33524;55.434;38.520;2024-01-15T04:18:08;98260.38;;;-7.83;97.65
47761;BME280;33524;55.434;38.520;2024-01-15T04:20:36;98257.91;;;-7.85;97.83
47761;BME280;33524;55.434;38.520;2024-01-15T04:23:05;98262.22;;;-7.87;97.34
47761;BME280;33524;55.434;38.520;2024-01-15T04:25:33;98263.66;;;-7.80;98.04
47761;BME280;33524;55.434;38.520;2024-01-15T04:28:01;98256.00;;;-7.80;97.78
47761;BME280;33524;55.434;38.520;2024-01-15T04:30:29;98265.47;;;-7.83;97.37
47761;BME280;33524;55.434;38.520;2024-01-15T04:32:57;98264.56;;;-7.81;97.67
47761;BME280;33524;55.434;38.520;2024-01-15T04:35:25;98264.44;;;-7.78;97.89
47761;BME280;33524;55.434;38.520;2024-01-15T04:37:53;98260.06;;;-7.73;97.65
47761;BME280;33524;55.434;38.520;2024-01-15T04:40:22;98266.03;;;-7.74;97.54
47761;BME280;33524;55.434;38.520;2024-01-15T04:42:50;98263.28;;;-7.67;98.03
47761;BME280;33524;55.434;38.520;2024-01-15T04:45:18;98264.25;;;-7.72;97.63
47761;BME280;33524;55.434;38.520;2024-01-15T04:47:46;98259.38;;;-7.79;96.82
47761;BME280;33524;55.434;38.520;2024-01-15T04:50:15;98261.53;;;-7.67;97.95
47761;BME280;33524;55.434;38.520;2024-01-15T04:52:43;98263.22;;;-7.66;97.89
47761;BME280;33524;55.434;38.520;2024-01-15T04:55:11;98257.50;;;-7.73;97.52
47761;BME280;33524;55.434;38.520;2024-01-15T04:57:39;98261.66;;;-7.70;97.62
47761;BME280;33524;55.434;38.520;2024-01-15T05:00:07;98260.75;;;-7.69;97.86
47761;BME280;33524;55.434;38.520;2024-01-15T05:02:36;98259.72;;;-7.63;98.26
47761;BME280;33524;55.434;38.520;2024-01-15T05:05:04;98254.53;;;-7.60;98.07
47761;BME280;33524;55.434;38.520;2024-01-15T05:07:32;98254.59;;;-7.62;98.13
47761;BME280;33524;55.434;38.520;2024-01-15T05:10:00;98257.13;;;-7.62;97.92
47761;BME280;33524;55.434;38.520;2024-01-15T05:12:33;98258.66;;;-7.56;97.69
47761;BME280;33524;55.434;38.520;2024-01-15T05:15:03;98258.66;;;-7.56;97.87
47761;BME280;33524;55.434;38.520;2024-01-15T05:17:31;98256.09;;;-7.56;98.09
47761;BME280;33524;55.434;38.520;2024-01-15T05:19:59;98257.09;;;-7.60;97.37
47761;BME280;33524;55.434;38.520;2024-01-15T05:22:29;98244.38;;;-7.62;97.30
47761;BME280;33524;55.434;38.520;2024-01-15T05:24:57;98251.56;;;-7.48;98.50
47761;BME280;33524;55.434;38.520;2024-01-15T05:27:25;98250.63;;;-7.45;98.09
47761;BME280;33524;55.434;38.520;2024-01-15T05:29:56;98225.72;;;-7.64;97.63
47761;BME280;33524;55.434;38.520;2024-01-15T05:32:24;98257.59;;;-7.51;97.67
47761;BME280;33524;55.434;38.520;2024-01-15T05:34:52;98252.50;;;-7.51;97.66
47761;BME280;33524;55.434;38.520;2024-01-15T05:37:21;98229.72;;;-7.57;98.41
47761;BME280;33524;55.434;38.520;2024-01-15T05:39:49;98237.19;;;-7.51;97.56
47761;BME280;33524;55.434;38.520;2024-01-15T05:42:17;98252.19;;;-7.41;97.58
47761;BME280;33524;55.434;38.520;2024-01-15T05:44:45;98248.66;;;-7.37;98.20
47761;BME280;33524;55.434;38.520;2024-01-15T05:47:13;98242.66;;;-7.36;97.81
47761;BME280;33524;55.434;38.520;2024-01-15T05:49:41;98247.72;;;-7.35;97.51
47761;BME280;33524;55.434;38.520;2024-01-15T05:52:10;98240.00;;;-7.33;98.20
47761;BME280;33524;55.434;38.520;2024-01-15T05:54:38;98254.38;;;-7.31;98.15
47761;BME280;33524;55.434;38.520;2024-01-15T05:57:09;98241.56;;;-7.29;98.09
47761;BME280;33524;55.434;38.520;2024-01-15T05:59:38;98244.12;;;-7.29;97.86
47761;BME280;33524;55.434;38.520;2024-01-15T06:02:06;98249.78;;;-7.21;97.47
47761;BME280;33524;55.434;38.520;2024-01-15T06:04:34;98249.78;;;-7.21;98.18
47761;BME280;33524;55.434;38.520;2024-01-15T06:07:02;98247.91;;;-7.16;97.55
47761;BME280;33524;55.434;38.520;2024-01-15T06:09:30;98247.91;;;-7.16;97.95
47761;BME280;33524;55.434;38.520;2024-01-15T06:11:59;98246.81;;;-7.08;97.44
47761;BME280;33524;55.434;38.520;2024-01-15T06:14:27;98244.03;;;-7.02;96.88
47761;BME280;33524;55.434;38.520;2024-01-15T06:16:55;98249.16;;;-7.02;97.37
47761;BME280;33524;55.434;38.520;2024-01-15T06:19:23;98246.47;;;-6.99;97.62
47761;BME280;33524;55.434;38.520;2024-01-15T06:21:52;98245.59;;;-6.98;97.60
47761;BME280;33524;55.434;38.520;2024-01-15T06:24:20;98249.63;;;-6.93;97.42
47761;BME280;33524;55.434;38.520;2024-01-15T06:26:48;98249.81;;;-6.97;97.46
47761;BME280;33524;55.434;38.520;2024-01-15T06:29:16;98251.09;;;-6.85;97.45
47761;BME280;33524;55.434;38.520;2024-01-15T06:31:44;98254.28;;;-6.80;96.98
47761;BME280;33524;55.434;38.520;2024-01-15T06:34:12;98249.25;;;-6.82;97.08
47761;BME280;33524;55.434;38.520;2024-01-15T06:36:40;98249.91;;;-6.77;97.29
47761;BME280;33524;55.434;38.520;2024-01-15T06:39:09;98244.03;;;-6.79;97.06
47761;BME280;33524;55.434;38.520;2024-01-15T06:41:38;98244.94;;;-6.80;97.35
47761;BME280;33524;55.434;38.520;2024-01-15T06:44:12;98233.16;;;-6.84;97.50
47761;BME280;33524;55.434;38.520;2024-01-15T06:46:44;98250.88;;;-6.79;97.56
47761;BME280;33524;55.434;38.520;2024-01-15T06:49:12;98251.47;;;-6.73;97.54
47761;BME280;33524;55.434;38.520;2024-01-15T06:51:41;98249.03;;;-6.76;97.56
47761;BME280;33524;55.434;38.520;2024-01-15T06:54:11;98238.69;;;-6.73;97.22
47761;BME280;33524;55.434;38.520;2024-01-15T06:56:39;98252.03;;;-6.64;96.63
47761;BME280;33524;55.434;38.520;2024-01-15T06:59:08;98243.84;;;-6.74;97.00
47761;BME280;33524;55.434;38.520;2024-01-15T07:01:37;98247.25;;;-6.74;97.25
47761;BME280;33524;55.434;38.520;2024-01-15T07:04:05;98248.69;;;-6.66;97.29
47761;BME280;33524;55.434;38.520;2024-01-15T07:06:33;98243.53;;;-6.65;97.61
47761;BME280;33524;55.434;38.520;2024-01-15T07:09:01;98246.88;;;-6.41;97.05
47761;BME280;33524;55.434;38.520;2024-01-15T07:11:29;98245.81;;;-6.35;97.22
47761;BME280;33524;55.434;38.520;2024-01-15T07:14:00;98252.25;;;-6.25;96.97
47761;BME280;33524;55.434;38.520;2024-01-15T07:16:28;98249.97;;;-6.33;96.37
47761;BME280;33524;55.434;38.520;2024-01-15T07:19:05;98256.72;;;-6.30;96.85
47761;BME280;33524;55.434;38.520;2024-01-15T07:21:33;98242.72;;;-6.21;97.51
47761;BME280;33524;55.434;38.520;2024-01-15T07:24:01;98242.38;;;-5.92;96.30
47761;BME280;33524;55.434;38.520;2024-01-15T07:26:30;98217.91;;;-6.19;95.63
47761;BME280;33524;55.434;38.520;2024-01-15T07:28:59;98251.28;;;-6.00;96.30
47761;BME280;33524;55.434;38.520;2024-01-15T07:31:27;98247.19;;;-5.84;96.35
47761;BME280;33524;55.434;38.520;2024-01-15T07:33:55;98248.53;;;-5.96;95.64
47761;BME280;33524;55.434;38.520;2024-01-15T07:36:24;98245.88;;;-5.72;95.82
47761;BME280;33524;55.434;38.520;2024-01-15T07:38:51;98236.22;;;-6.08;95.82
47761;BME280;33524;55.434;38.520;2024-01-15T07:41:21;98237.66;;;-6.01;96.42
47761;BME280;33524;55.434;38.520;2024-01-15T07:43:49;98243.91;;;-6.08;96.50
47761;BME280;33524;55.434;38.520;2024-01-15T07:46:17;98242.06;;;-5.84;96.15
47761;BME280;33524;55.434;38.520;2024-01-15T07:48:45;98234.19;;;-6.00;96.48
47761;BME280;33524;55.434;38.520;2024-01-15T07:51:16;98244.75;;;-6.07;96.60
47761;BME280;33524;55.434;38.520;2024-01-15T07:53:45;98246.59;;;-5.91;96.61
47761;BME280;33524;55.434;38.520;2024-01-15T07:56:12;98243.66;;;-5.81;96.17
47761;BME280;33524;55.434;38.520;2024-01-15T07:58:40;98247.41;;;-5.68;96.60
47761;BME280;33524;55.434;38.520;2024-01-15T08:01:09;98243.88;;;-5.45;95.20
47761;BME280;33524;55.434;38.520;2024-01-15T08:03:38;98245.88;;;-5.52;95.10
47761;BME280;33524;55.434;38.520;2024-01-15T08:06:06;98254.50;;;-5.54;95.81
47761;BME280;33524;55.434;38.520;2024-01-15T08:08:38;98244.12;;;-5.31;95.95
47761;BME280;33524;55.434;38.520;2024-01-15T08:11:06;98249.38;;;-5.13;94.55
47761;BME280;33524;55.434;38.520;2024-01-15T08:13:34;98244.75;;;-5.25;95.17
47761;BME280;33524;55.434;38.520;2024-01-15T08:16:02;98249.06;;;-5.26;94.26
47761;BME280;33524;55.434;38.520;2024-01-15T08:18:30;98250.66;;;-5.23;94.92
47761;BME280;33524;55.434;38.520;2024-01-15T08:20:58;98246.66;;;-5.50;94.43
47761;BME280;33524;55.434;38.520;2024-01-15T08:23:27;98245.38;;;-5.39;94.69
47761;BME280;33524;55.434;38.520;2024-01-15T08:25:58;98250.34;;;-5.36;93.72
47761;BME280;33524;55.434;38.520;2024-01-15T08:28:27;98240.97;;;-5.17;94.71
47761;BME280;33524;55.434;38.520;2024-01-15T08:30:55;98244.09;;;-5.29;94.45
47761;BME280;33524;55.434;38.520;2024-01-15T08:33:25;98247.25;;;-5.03;95.21
47761;BME280;33524;55.434;38.520;2024-01-15T08:35:54;98246.47;;;-5.05;94.30
47761;BME280;33524;55.434;38.520;2024-01-15T08:38:22;98239.50;;;-4.83;94.83
47761;BME280;33524;55.434;38.520;2024-01-15T08:40:50;98246.69;;;-5.10;94.60
47761;BME280;33524;55.434;38.520;2024-01-15T08:43:19;98244.25;;;-4.94;94.09
47761;BME280;33524;55.434;38.520;2024-01-15T08:45:47;98234.09;;;-5.35;94.33
47761;BME280;33524;55.434;38.520;2024-01-15T08:48:16;98249.44;;;-4.75;93.57
47761;BME280;33524;55.434;38.520;2024-01-15T08:50:45;98247.91;;;-4.79;93.87
47761;BME280;33524;55.434;38.520;2024-01-15T08:53:19;98245.63;;;-4.67;92.78
47761;BME280;33524;55.434;38.520;2024-01-15T08:55:47;98251.03;;;-4.54;93.44
47761;BME280;33524;55.434;38.520;2024-01-15T08:58:16;98246.97;;;-4.97;92.20
47761;BME280;33524;55.434;38.520;2024-01-15T09:00:44;98250.38;;;-4.78;93.05
47761;BME280;33524;55.434;38.520;2024-01-15T09:03:12;98254.47;;;-4.55;92.63
47761;BME280;33524;55.434;38.520;2024-01-15T09:05:40;98243.59;;;-4.60;92.35
47761;BME280;33524;55.434;38.520;2024-01-15T09:08:09;98248.56;;;-4.95;93.58
47761;BME280;33524;55.434;38.520;2024-01-15T09:10:37;98255.44;;;-4.95;92.86
47761;BME280;33524;55.434;38.520;2024-01-15T09:13:09;98255.44;;;-4.95;93.53
47761;BME280;33524;55.434;38.520;2024-01-15T09:15:37;98253.25;;;-4.46;92.37
47761;BME280;33524;55.434;38.520;2024-01-15T09:18:05;98250.59;;;-4.44;92.02
47761;BME280;33524;55.434;38.520;2024-01-15T09:20:35;98237.84;;;-4.46;92.46
47761;BME280;33524;55.434;38.520;2024-01-15T09:23:04;98248.66;;;-4.58;91.83
47761;BME280;33524;55.434;38.520;2024-01-15T09:25:34;98242.47;;;-4.92;92.69
47761;BME280;33524;55.434;38.520;2024-01-15T09:28:02;98249.25;;;-4.34;92.04
47761;BME280;33524;55.434;38.520;2024-01-15T09:30:31;98243.31;;;-4.35;92.28
47761;BME280;33524;55.434;38.520;2024-01-15T09:32:59;98252.75;;;-4.73;92.39
47761;BME280;33524;55.434;38.520;2024-01-15T09:35:27;98249.34;;;-4.74;93.23
47761;BME280;33524;55.434;38.520;2024-01-15T09:37:55;98242.34;;;-4.70;92.98
47761;BME280;33524;55.434;38.520;2024-01-15T09:40:23;98239.66;;;-4.48;91.97
47761;BME280;33524;55.434;38.520;2024-01-15T09:42:52;98236.44;;;-4.53;92.07
47761;BME280;33524;55.434;38.520;2024-01-15T09:45:21;98239.94;;;-4.54;93.08
47761;BME280;33524;55.434;38.520;2024-01-15T09:47:49;98247.47;;;-4.89;93.73
47761;BME280;33524;55.434;38.520;2024-01-15T09:50:17;98248.19;;;-4.48;92.90
47761;BME280;33524;55.434;38.520;2024-01-15T09:52:46;98250.69;;;-4.65;92.77
47761;BME280;33524;55.434;38.520;2024-01-15T09:55:15;98249.34;;;-4.55;92.70
47761;BME280;33524;55.434;38.520;2024-01-15T09:57:45;98245.38;;;-4.43;93.39
47761;BME280;33524;55.434;38.520;2024-01-15T10:00:20;98249.28;;;-4.53;92.87
47761;BME280;33524;55.434;38.520;2024-01-15T10:02:49;98246.88;;;-4.75;93.85
47761;BME280;33524;55.434;38.520;2024-01-15T10:05:17;98251.56;;;-4.47;93.54
47761;BME280;33524;55.434;38.520;2024-01-15T10:07:46;98251.34;;;-4.61;93.91
47761;BME280;33524;55.434;38.520;2024-01-15T10:10:16;98248.72;;;-4.41;93.16
47761;BME280;33524;55.434;38.520;2024-01-15T10:12:44;98250.59;;;-4.63;93.37
47761;BME280;33524;55.434;38.520;2024-01-15T10:15:12;98241.09;;;-4.80;94.27
47761;BME280;33524;55.434;38.520;2024-01-15T10:17:41;98245.19;;;-4.57;93.82
47761;BME280;33524;55.434;38.520;2024-01-15T10:20:10;98251.50;;;-4.64;94.29
47761;BME280;33524;55.434;38.520;2024-01-15T10:22:41;98239.28;;;-4.78;95.18
47761;BME280;33524;55.434;38.520;2024-01-15T10:25:11;98237.94;;;-4.67;94.63
47761;BME280;33524;55.434;38.520;2024-01-15T10:27:40;98238.13;;;-4.71;94.67
47761;BME280;33524;55.434;38.520;2024-01-15T10:30:10;98242.63;;;-4.76;95.11
47761;BME280;33524;55.434;38.520;2024-01-15T10:32:39;98230.00;;;-4.81;95.25
47761;BME280;33524;55.434;38.520;2024-01-15T10:35:09;98228.06;;;-4.76;94.96
47761;BME280;33524;55.434;38.520;2024-01-15T10:37:38;98235.63;;;-4.73;94.63
47761;BME280;33524;55.434;38.520;2024-01-15T10:40:06;98230.06;;;-4.63;94.88
47761;BME280;33524;55.434;38.520;2024-01-15T10:42:34;98227.78;;;-4.51;94.95
47761;BME280;33524;55.434;38.520;2024-01-15T10:45:03;98225.78;;;-4.44;94.73
47761;BME280;33524;55.434;38.520;2024-01-15T10:47:31;98227.53;;;-4.08;94.17
47761;BME280;33524;55.434;38.520;2024-01-15T10:50:00;98219.31;;;-3.80;93.79
47761;BME280;33524;55.434;38.520;2024-01-15T10:52:34;98220.16;;;-3.79;92.78
47761;BME280;33524;55.434;38.520;2024-01-15T10:55:08;98215.63;;;-3.57;92.60
47761;BME280;33524;55.434;38.520;2024-01-15T10:57:48;98217.87;;;-3.86;91.88
47761;BME280;33524;55.434;38.520;2024-01-15T11:00:20;98215.13;;;-4.17;91.98
47761;BME280;33524;55.434;38.520;2024-01-15T11:02:49;98214.38;;;-4.02;92.28
47761;BME280;33524;55.434;38.520;2024-01-15T11:05:18;98225.87;;;-4.09;92.49
47761;BME280;33524;55.434;38.520;2024-01-15T11:07:59;98216.03;;;-4.18;93.11
47761;BME280;33524;55.434;38.520;2024-01-15T11:10:42;98220.97;;;-4.33;93.11
47761;BME280;33524;55.434;38.520;2024-01-15T11:13:15;98216.31;;;-4.24;93.36
47761;BME280;33524;55.434;38.520;2024-01-15T11:16:02;98220.09;;;-4.32;94.47
47761;BME280;33524;55.434;38.520;2024-01-15T11:21:29;98204.75;;;-3.79;94.73
47761;BME280;33524;55.434;38.520;2024-01-15T11:24:00;98208.00;;;-3.25;93.92
47761;BME280;33524;55.434;38.520;2024-01-15T11:29:09;98203.03;;;-3.46;91.24
47761;BME280;33524;55.434;38.520;2024-01-15T11:34:10;98207.59;;;-3.51;90.82
47761;BME280;33524;55.434;38.520;2024-01-15T11:39:40;98205.69;;;-4.17;93.79
47761;BME280;33524;55.434;38.520;2024-01-15T11:42:11;98214.62;;;-4.07;92.54
47761;BME280;33524;55.434;38.520;2024-01-15T11:44:40;98212.22;;;-4.29;94.60
47761;BME280;33524;55.434;38.520;2024-01-15T11:47:09;98206.81;;;-4.22;93.04
47761;BME280;33524;55.434;38.520;2024-01-15T11:49:59;98216.38;;;-4.26;93.31
47761;BME280;33524;55.434;38.520;2024-01-15T11:52:35;98217.16;;;-4.43;94.52
47761;BME280;33524;55.434;38.520;2024-01-15T11:55:25;98211.44;;;-4.48;95.96
47761;BME280;33524;55.434;38.520;2024-01-15T11:57:54;98218.28;;;-4.49;95.53
47761;BME280;33524;55.434;38.520;2024-01-15T12:00:23;98214.00;;;-4.48;96.82
47761;BME280;33524;55.434;38.520;2024-01-15T12:02:52;98214.88;;;-4.49;96.32
47761;BME280;33524;55.434;38.520;2024-01-15T12:05:20;98187.87;;;-4.56;95.56
47761;BME280;33524;55.434;38.520;2024-01-15T12:07:49;98214.47;;;-4.40;95.79
47761;BME280;33524;55.434;38.520;2024-01-15T12:10:20;98221.19;;;-4.37;95.97
47761;BME280;33524;55.434;38.520;2024-01-15T12:13:10;98213.56;;;-4.39;95.83
47761;BME280;33524;55.434;38.520;2024-01-15T12:15:41;98213.09;;;-4.47;96.42
47761;BME280;33524;55.434;38.520;2024-01-15T12:18:12;98211.63;;;-4.53;95.59
47761;BME280;33524;55.434;38.520;2024-01-15T12:20:44;98222.81;;;-4.54;97.43
47761;BME280;33524;55.434;38.520;2024-01-15T12:23:18;98220.44;;;-4.58;97.11
47761;BME280;33524;55.434;38.520;2024-01-15T12:25:47;98211.91;;;-4.59;96.72
47761;BME280;33524;55.434;38.520;2024-01-15T12:28:15;98211.84;;;-4.57;98.37
47761;BME280;33524;55.434;38.520;2024-01-15T12:30:46;98201.44;;;-4.54;99.68
47761;BME280;33524;55.434;38.520;2024-01-15T12:33:18;98208.22;;;-4.53;98.56
47761;BME280;33524;55.434;38.520;2024-01-15T12:35:48;98208.38;;;-4.56;98.98
47761;BME280;33524;55.434;38.520;2024-01-15T12:38:19;98208.22;;;-4.53;100.00
47761;BME280;33524;55.434;38.520;2024-01-15T12:40:51;98210.31;;;-4.61;99.56
47761;BME280;33524;55.434;38.520;2024-01-15T12:43:19;98199.38;;;-4.65;98.74
47761;BME280;33524;55.434;38.520;2024-01-15T12:45:54;98206.16;;;-4.64;99.64
47761;BME280;33524;55.434;38.520;2024-01-15T12:48:22;98202.72;;;-4.63;99.64
47761;BME280;33524;55.434;38.520;2024-01-15T12:50:52;98207.69;;;-4.60;100.00
47761;BME280;33524;55.434;38.520;2024-01-15T12:53:20;98212.06;;;-4.62;100.00
47761;BME280;33524;55.434;38.520;2024-01-15T12:55:48;98210.41;;;-4.63;100.00
47761;BME280;33524;55.434;38.520;2024-01-15T12:58:16;98201.59;;;-4.76;100.00
47761;BME280;33524;55.434;38.520;2024-01-15T13:00:47;98198.47;;;-4.83;100.00
47761;BME280;33524;55.434;38.520;2024-01-15T13:03:16;98217.25;;;-4.63;100.00
47761;BME280;33524;55.434;38.520;2024-01-15T13:05:44;98216.31;;;-4.61;100.00
47761;BME280;33524;55.434;38.520;2024-01-15T13:08:19;98216.09;;;-4.75;100.00
47761;BME280;33524;55.434;38.520;2024-01-15T13:10:47;98213.44;;;-4.74;100.00
47761;BME280;33524;55.434;38.520;2024-01-15T13:13:16;98216.63;;;-4.69;100.00